sensor_id;sensor_type;location;lat;lon;timestamp;P1;durP1;ratioP1;P2;durP2;ratioP2
4051;SDS011;2040;50.924;11.604;2023-06-10T00:01:37;6.73;;;4.63;;
4051;SDS011;2040;50.924;11.604;2023-06-10T00:04:03;9.07;;;4.17;;
4051;SDS011;2040;50.924;11.604;2023-06-10T00:06:29;6.80;;;4.30;;
4051;SDS011;2040;50.924;11.604;2023-06-10T00:09:04;10.53;;;4.60;;
4051;SDS011;2040;50.924;11.604;2023-06-10T00:11:30;13.13;;;4.43;;
4051;SDS011;2040;50.924;11.604;2023-06-10T00:13:57;6.67;;;4.33;;
4051;SDS011;2040;50.924;11.604;2023-06-10T00:16:22;5.57;;;3.40;;
4051;SDS011;2040;50.924;11.604;2023-06-10T00:18:49;12.23;;;3.87;;
4051;SDS011;2040;50.924;11.604;2023-06-10T00:21:16;8.20;;;4.00;;
4051;SDS011;2040;50.924;11.604;2023-06-10T00:23:42;6.40;;;4.67;;
4051;SDS011;2040;50.924;11.604;2023-06-10T00:26:08;6.03;;;4.30;;
4051;SDS011;2040;50.924;11.604;2023-06-10T00:28:34;8.37;;;3.90;;
4051;SDS011;2040;50.924;11.604;2023-06-10T00:30:59;9.40;;;4.10;;
4051;SDS011;2040;50.924;11.604;2023-06-10T00:33:25;6.57;;;4.50;;
4051;SDS011;2040;50.924;11.604;2023-06-10T00:35:51;10.07;;;4.73;;
4051;SDS011;2040;50.924;11.604;2023-06-10T00:38:17;7.67;;;3.80;;
4051;SDS011;2040;50.924;11.604;2023-06-10T00:40:42;6.83;;;4.10;;
4051;SDS011;2040;50.924;11.604;2023-06-10T00:43:08;9.93;;;4.53;;
4051;SDS011;2040;50.924;11.604;2023-06-10T00:45:34;7.50;;;4.73;;
4051;SDS011;2040;50.924;11.604;2023-06-10T00:48:00;7.33;;;4.33;;
4051;SDS011;2040;50.924;11.604;2023-06-10T00:50:26;8.93;;;5.37;;
4051;SDS011;2040;50.924;11.604;2023-06-10T00:52:53;7.37;;;4.73;;
4051;SDS011;2040;50.924;11.604;2023-06-10T00:55:19;7.80;;;3.63;;
4051;SDS011;2040;50.924;11.604;2023-06-10T00:57:45;7.60;;;5.53;;
4051;SDS011;2040;50.924;11.604;2023-06-10T01:00:13;5.83;;;4.00;;
4051;SDS011;2040;50.924;11.604;2023-06-10T01:02:40;8.10;;;4.30;;
4051;SDS011;2040;50.924;11.604;2023-06-10T01:05:06;7.57;;;4.03;;
4051;SDS011;2040;50.924;11.604;2023-06-10T01:07:40;7.70;;;4.40;;
4051;SDS011;2040;50.924;11.604;2023-06-10T01:10:33;8.07;;;4.20;;
4051;SDS011;2040;50.924;11.604;2023-06-10T01:13:06;13.60;;;4.57;;
4051;SDS011;2040;50.924;11.604;2023-06-10T01:15:37;5.27;;;3.53;;
4051;SDS011;2040;50.924;11.604;2023-06-10T01:18:07;5.90;;;4.40;;
4051;SDS011;2040;50.924;11.604;2023-06-10T01:20:35;10.57;;;4.13;;
4051;SDS011;2040;50.924;11.604;2023-06-10T01:23:05;7.77;;;4.20;;
4051;SDS011;2040;50.924;11.604;2023-06-10T01:25:31;7.20;;;3.73;;
4051;SDS011;2040;50.924;11.604;2023-06-10T01:30:48;7.03;;;4.60;;
4051;SDS011;2040;50.924;11.604;2023-06-10T01:33:17;8.63;;;4.23;;
4051;SDS011;2040;50.924;11.604;2023-06-10T01:35:50;7.90;;;4.00;;
4051;SDS011;2040;50.924;11.604;2023-06-10T01:38:16;11.90;;;4.00;;
4051;SDS011;2040;50.924;11.604;2023-06-10T01:40:44;5.40;;;4.30;;
4051;SDS011;2040;50.924;11.604;2023-06-10T01:43:11;9.17;;;4.40;;
4051;SDS011;2040;50.924;11.604;2023-06-10T01:45:37;15.07;;;4.00;;
4051;SDS011;2040;50.924;11.604;2023-06-10T01:48:02;4.50;;;3.90;;
4051;SDS011;2040;50.924;11.604;2023-06-10T01:50:28;10.53;;;4.37;;
4051;SDS011;2040;50.924;11.604;2023-06-10T01:52:54;4.97;;;3.13;;
4051;SDS011;2040;50.924;11.604;2023-06-10T01:55:19;6.93;;;3.30;;
4051;SDS011;2040;50.924;11.604;2023-06-10T01:57:45;9.43;;;4.30;;
4051;SDS011;2040;50.924;11.604;2023-06-10T02:00:10;7.30;;;3.90;;
4051;SDS011;2040;50.924;11.604;2023-06-10T02:02:36;9.77;;;4.70;;
4051;SDS011;2040;50.924;11.604;2023-06-10T02:05:02;27.47;;;3.63;;
4051;SDS011;2040;50.924;11.604;2023-06-10T02:07:28;7.37;;;3.57;;
4051;SDS011;2040;50.924;11.604;2023-06-10T02:09:54;7.33;;;4.87;;
4051;SDS011;2040;50.924;11.604;2023-06-10T02:12:19;6.00;;;3.80;;
4051;SDS011;2040;50.924;11.604;2023-06-10T02:14:45;8.17;;;3.33;;
4051;SDS011;2040;50.924;11.604;2023-06-10T02:17:10;9.73;;;3.57;;
4051;SDS011;2040;50.924;11.604;2023-06-10T02:19:38;7.33;;;3.70;;
4051;SDS011;2040;50.924;11.604;2023-06-10T02:22:07;5.37;;;3.77;;
4051;SDS011;2040;50.924;11.604;2023-06-10T02:24:33;4.90;;;3.80;;
4051;SDS011;2040;50.924;11.604;2023-06-10T02:26:58;6.93;;;3.70;;
4051;SDS011;2040;50.924;11.604;2023-06-10T02:29:25;5.43;;;3.40;;
4051;SDS011;2040;50.924;11.604;2023-06-10T02:31:51;6.60;;;3.73;;
4051;SDS011;2040;50.924;11.604;2023-06-10T02:34:17;10.87;;;3.77;;
4051;SDS011;2040;50.924;11.604;2023-06-10T02:36:43;9.63;;;3.90;;
4051;SDS011;2040;50.924;11.604;2023-06-10T02:39:09;7.40;;;4.33;;
4051;SDS011;2040;50.924;11.604;2023-06-10T02:41:34;9.93;;;4.13;;
4051;SDS011;2040;50.924;11.604;2023-06-10T02:44:00;8.60;;;4.70;;
4051;SDS011;2040;50.924;11.604;2023-06-10T02:46:26;11.53;;;3.83;;
4051;SDS011;2040;50.924;11.604;2023-06-10T03:01:56;6.50;;;3.70;;
4051;SDS011;2040;50.924;11.604;2023-06-10T03:04:22;5.00;;;4.07;;
4051;SDS011;2040;50.924;11.604;2023-06-10T03:06:48;6.60;;;3.63;;
4051;SDS011;2040;50.924;11.604;2023-06-10T03:09:14;6.67;;;3.70;;
4051;SDS011;2040;50.924;11.604;2023-06-10T03:11:39;5.87;;;3.70;;
4051;SDS011;2040;50.924;11.604;2023-06-10T03:14:05;5.93;;;5.03;;
4051;SDS011;2040;50.924;11.604;2023-06-10T03:16:31;9.27;;;3.90;;
4051;SDS011;2040;50.924;11.604;2023-06-10T03:18:56;7.50;;;4.13;;
4051;SDS011;2040;50.924;11.604;2023-06-10T03:21:22;9.20;;;4.10;;
4051;SDS011;2040;50.924;11.604;2023-06-10T03:23:47;11.40;;;4.30;;
4051;SDS011;2040;50.924;11.604;2023-06-10T03:26:13;5.40;;;4.10;;
4051;SDS011;2040;50.924;11.604;2023-06-10T03:28:40;7.00;;;4.10;;
4051;SDS011;2040;50.924;11.604;2023-06-10T03:31:06;7.23;;;3.93;;
4051;SDS011;2040;50.924;11.604;2023-06-10T03:33:32;7.17;;;4.17;;
4051;SDS011;2040;50.924;11.604;2023-06-10T03:35:57;9.63;;;4.17;;
4051;SDS011;2040;50.924;11.604;2023-06-10T03:38:23;8.30;;;4.97;;
4051;SDS011;2040;50.924;11.604;2023-06-10T03:40:49;8.70;;;4.60;;
4051;SDS011;2040;50.924;11.604;2023-06-10T03:43:15;5.40;;;3.67;;
4051;SDS011;2040;50.924;11.604;2023-06-10T03:45:40;4.67;;;3.67;;
4051;SDS011;2040;50.924;11.604;2023-06-10T03:48:06;6.40;;;3.97;;
4051;SDS011;2040;50.924;11.604;2023-06-10T03:50:33;9.67;;;4.10;;
4051;SDS011;2040;50.924;11.604;2023-06-10T03:52:59;5.10;;;3.37;;
4051;SDS011;2040;50.924;11.604;2023-06-10T03:55:24;7.50;;;4.00;;
4051;SDS011;2040;50.924;11.604;2023-06-10T03:57:50;15.93;;;4.47;;
4051;SDS011;2040;50.924;11.604;2023-06-10T04:00:16;6.70;;;3.97;;
4051;SDS011;2040;50.924;11.604;2023-06-10T04:02:42;7.50;;;3.90;;
4051;SDS011;2040;50.924;11.604;2023-06-10T04:05:12;6.50;;;3.90;;
4051;SDS011;2040;50.924;11.604;2023-06-10T04:07:39;13.67;;;4.40;;
4051;SDS011;2040;50.924;11.604;2023-06-10T04:10:09;6.43;;;3.70;;
4051;SDS011;2040;50.924;11.604;2023-06-10T04:12:35;5.83;;;3.30;;
4051;SDS011;2040;50.924;11.604;2023-06-10T04:15:02;7.57;;;4.00;;
4051;SDS011;2040;50.924;11.604;2023-06-10T04:17:28;9.57;;;4.70;;
4051;SDS011;2040;50.924;11.604;2023-06-10T04:19:53;4.70;;;3.70;;
4051;SDS011;2040;50.924;11.604;2023-06-10T04:22:19;5.30;;;3.70;;
4051;SDS011;2040;50.924;11.604;2023-06-10T04:24:45;6.33;;;3.63;;
4051;SDS011;2040;50.924;11.604;2023-06-10T04:27:11;8.53;;;3.70;;
4051;SDS011;2040;50.924;11.604;2023-06-10T04:29:36;8.30;;;4.00;;
4051;SDS011;2040;50.924;11.604;2023-06-10T04:32:02;6.10;;;3.83;;
4051;SDS011;2040;50.924;11.604;2023-06-10T04:34:28;7.80;;;3.90;;
4051;SDS011;2040;50.924;11.604;2023-06-10T04:36:53;8.37;;;3.50;;
4051;SDS011;2040;50.924;11.604;2023-06-10T04:39:19;7.67;;;4.20;;
4051;SDS011;2040;50.924;11.604;2023-06-10T04:41:45;9.93;;;4.07;;
4051;SDS011;2040;50.924;11.604;2023-06-10T04:44:11;7.87;;;3.63;;
4051;SDS011;2040;50.924;11.604;2023-06-10T04:46:37;9.23;;;4.20;;
4051;SDS011;2040;50.924;11.604;2023-06-10T04:49:03;11.40;;;4.50;;
4051;SDS011;2040;50.924;11.604;2023-06-10T04:51:29;6.50;;;4.23;;
4051;SDS011;2040;50.924;11.604;2023-06-10T04:53:55;4.60;;;3.40;;
4051;SDS011;2040;50.924;11.604;2023-06-10T04:56:21;4.10;;;3.63;;
4051;SDS011;2040;50.924;11.604;2023-06-10T04:58:47;7.17;;;4.10;;
4051;SDS011;2040;50.924;11.604;2023-06-10T05:01:12;5.80;;;4.30;;
4051;SDS011;2040;50.924;11.604;2023-06-10T05:03:38;7.87;;;4.30;;
4051;SDS011;2040;50.924;11.604;2023-06-10T05:06:04;5.63;;;3.70;;
4051;SDS011;2040;50.924;11.604;2023-06-10T05:08:29;12.53;;;4.20;;
4051;SDS011;2040;50.924;11.604;2023-06-10T05:10:55;11.50;;;4.80;;
4051;SDS011;2040;50.924;11.604;2023-06-10T05:13:20;9.43;;;5.73;;
4051;SDS011;2040;50.924;11.604;2023-06-10T05:15:46;5.40;;;4.10;;
4051;SDS011;2040;50.924;11.604;2023-06-10T05:18:11;9.13;;;4.27;;
4051;SDS011;2040;50.924;11.604;2023-06-10T05:20:37;5.90;;;3.97;;
4051;SDS011;2040;50.924;11.604;2023-06-10T05:23:03;10.00;;;5.40;;
4051;SDS011;2040;50.924;11.604;2023-06-10T05:25:32;11.60;;;4.43;;
4051;SDS011;2040;50.924;11.604;2023-06-10T05:27:57;8.90;;;5.23;;
4051;SDS011;2040;50.924;11.604;2023-06-10T05:30:23;7.60;;;4.60;;
4051;SDS011;2040;50.924;11.604;2023-06-10T05:32:50;9.80;;;5.20;;
4051;SDS011;2040;50.924;11.604;2023-06-10T05:35:16;6.40;;;4.43;;
4051;SDS011;2040;50.924;11.604;2023-06-10T05:37:42;8.13;;;4.90;;
4051;SDS011;2040;50.924;11.604;2023-06-10T05:40:08;8.80;;;4.83;;
4051;SDS011;2040;50.924;11.604;2023-06-10T05:42:34;6.60;;;4.83;;
4051;SDS011;2040;50.924;11.604;2023-06-10T05:45:00;9.10;;;4.60;;
4051;SDS011;2040;50.924;11.604;2023-06-10T05:47:26;8.10;;;4.20;;
4051;SDS011;2040;50.924;11.604;2023-06-10T05:49:51;8.33;;;5.00;;
4051;SDS011;2040;50.924;11.604;2023-06-10T05:52:17;10.13;;;4.30;;
4051;SDS011;2040;50.924;11.604;2023-06-10T05:54:43;10.07;;;6.27;;
4051;SDS011;2040;50.924;11.604;2023-06-10T05:57:09;11.03;;;5.10;;
4051;SDS011;2040;50.924;11.604;2023-06-10T05:59:35;10.20;;;5.27;;
4051;SDS011;2040;50.924;11.604;2023-06-10T06:02:01;9.60;;;4.73;;
4051;SDS011;2040;50.924;11.604;2023-06-10T06:04:26;11.40;;;5.00;;
4051;SDS011;2040;50.924;11.604;2023-06-10T06:06:52;13.43;;;5.23;;
4051;SDS011;2040;50.924;11.604;2023-06-10T06:09:17;8.70;;;5.23;;
4051;SDS011;2040;50.924;11.604;2023-06-10T06:11:43;11.17;;;6.07;;
4051;SDS011;2040;50.924;11.604;2023-06-10T06:14:09;10.00;;;5.30;;
4051;SDS011;2040;50.924;11.604;2023-06-10T06:16:34;12.40;;;5.97;;
4051;SDS011;2040;50.924;11.604;2023-06-10T06:19:00;8.83;;;5.30;;
4051;SDS011;2040;50.924;11.604;2023-06-10T06:21:25;10.53;;;6.50;;
4051;SDS011;2040;50.924;11.604;2023-06-10T06:23:51;10.67;;;5.37;;
4051;SDS011;2040;50.924;11.604;2023-06-10T06:26:16;8.97;;;6.10;;
4051;SDS011;2040;50.924;11.604;2023-06-10T06:28:42;6.53;;;4.77;;
4051;SDS011;2040;50.924;11.604;2023-06-10T06:31:08;13.33;;;5.10;;
4051;SDS011;2040;50.924;11.604;2023-06-10T06:33:33;6.40;;;5.30;;
4051;SDS011;2040;50.924;11.604;2023-06-10T06:35:59;11.13;;;4.50;;
4051;SDS011;2040;50.924;11.604;2023-06-10T06:38:25;7.30;;;5.17;;
4051;SDS011;2040;50.924;11.604;2023-06-10T06:40:51;11.10;;;5.90;;
4051;SDS011;2040;50.924;11.604;2023-06-10T06:43:16;11.27;;;5.30;;
4051;SDS011;2040;50.924;11.604;2023-06-10T06:45:43;20.37;;;6.37;;
4051;SDS011;2040;50.924;11.604;2023-06-10T06:48:10;17.53;;;6.03;;
4051;SDS011;2040;50.924;11.604;2023-06-10T06:50:36;9.80;;;5.80;;
4051;SDS011;2040;50.924;11.604;2023-06-10T06:53:02;19.13;;;6.33;;
4051;SDS011;2040;50.924;11.604;2023-06-10T06:55:28;8.50;;;5.97;;
4051;SDS011;2040;50.924;11.604;2023-06-10T06:57:53;12.60;;;6.13;;
4051;SDS011;2040;50.924;11.604;2023-06-10T07:00:19;9.27;;;5.83;;
4051;SDS011;2040;50.924;11.604;2023-06-10T07:02:45;11.60;;;6.03;;
4051;SDS011;2040;50.924;11.604;2023-06-10T07:05:10;13.40;;;5.80;;
4051;SDS011;2040;50.924;11.604;2023-06-10T07:07:36;11.67;;;5.50;;
4051;SDS011;2040;50.924;11.604;2023-06-10T07:10:01;12.73;;;6.37;;
4051;SDS011;2040;50.924;11.604;2023-06-10T07:12:27;7.13;;;5.77;;
4051;SDS011;2040;50.924;11.604;2023-06-10T07:14:53;10.87;;;5.17;;
4051;SDS011;2040;50.924;11.604;2023-06-10T07:17:18;10.93;;;6.00;;
4051;SDS011;2040;50.924;11.604;2023-06-10T07:19:45;9.17;;;5.43;;
4051;SDS011;2040;50.924;11.604;2023-06-10T07:22:10;14.33;;;6.20;;
4051;SDS011;2040;50.924;11.604;2023-06-10T07:24:36;12.20;;;6.30;;
4051;SDS011;2040;50.924;11.604;2023-06-10T07:27:02;17.80;;;7.50;;
4051;SDS011;2040;50.924;11.604;2023-06-10T07:29:27;17.93;;;6.67;;
4051;SDS011;2040;50.924;11.604;2023-06-10T07:31:53;10.47;;;6.70;;
4051;SDS011;2040;50.924;11.604;2023-06-10T07:34:19;17.10;;;6.50;;
4051;SDS011;2040;50.924;11.604;2023-06-10T07:36:44;9.07;;;6.30;;
4051;SDS011;2040;50.924;11.604;2023-06-10T07:39:10;8.70;;;5.60;;
4051;SDS011;2040;50.924;11.604;2023-06-10T07:41:35;11.93;;;7.97;;
4051;SDS011;2040;50.924;11.604;2023-06-10T07:44:01;8.90;;;6.33;;
4051;SDS011;2040;50.924;11.604;2023-06-10T07:46:27;17.17;;;6.73;;
4051;SDS011;2040;50.924;11.604;2023-06-10T07:48:53;12.57;;;7.20;;
4051;SDS011;2040;50.924;11.604;2023-06-10T07:51:20;15.97;;;7.37;;
4051;SDS011;2040;50.924;11.604;2023-06-10T07:53:46;15.50;;;8.97;;
4051;SDS011;2040;50.924;11.604;2023-06-10T07:56:12;9.07;;;6.23;;
4051;SDS011;2040;50.924;11.604;2023-06-10T07:58:37;16.47;;;7.30;;
4051;SDS011;2040;50.924;11.604;2023-06-10T08:01:03;16.63;;;7.17;;
4051;SDS011;2040;50.924;11.604;2023-06-10T08:03:28;10.97;;;5.73;;
4051;SDS011;2040;50.924;11.604;2023-06-10T08:05:54;8.50;;;6.67;;
4051;SDS011;2040;50.924;11.604;2023-06-10T08:08:19;9.57;;;5.97;;
4051;SDS011;2040;50.924;11.604;2023-06-10T08:10:45;10.23;;;6.30;;
4051;SDS011;2040;50.924;11.604;2023-06-10T08:13:10;11.97;;;6.20;;
4051;SDS011;2040;50.924;11.604;2023-06-10T08:15:36;15.97;;;6.20;;
4051;SDS011;2040;50.924;11.604;2023-06-10T08:18:02;10.30;;;6.23;;
4051;SDS011;2040;50.924;11.604;2023-06-10T08:20:27;9.47;;;5.93;;
4051;SDS011;2040;50.924;11.604;2023-06-10T08:22:53;11.80;;;6.40;;
4051;SDS011;2040;50.924;11.604;2023-06-10T08:25:18;17.93;;;6.47;;
4051;SDS011;2040;50.924;11.604;2023-06-10T08:27:46;12.40;;;7.33;;
4051;SDS011;2040;50.924;11.604;2023-06-10T08:30:12;13.27;;;6.33;;
4051;SDS011;2040;50.924;11.604;2023-06-10T08:32:38;9.50;;;6.83;;
4051;SDS011;2040;50.924;11.604;2023-06-10T08:35:03;9.20;;;6.60;;
4051;SDS011;2040;50.924;11.604;2023-06-10T08:37:29;8.83;;;6.30;;
4051;SDS011;2040;50.924;11.604;2023-06-10T08:39:55;10.83;;;6.40;;
4051;SDS011;2040;50.924;11.604;2023-06-10T08:42:34;8.13;;;6.23;;
4051;SDS011;2040;50.924;11.604;2023-06-10T08:45:07;12.13;;;7.10;;
4051;SDS011;2040;50.924;11.604;2023-06-10T08:47:35;16.93;;;5.87;;
4051;SDS011;2040;50.924;11.604;2023-06-10T08:50:03;15.37;;;6.77;;
4051;SDS011;2040;50.924;11.604;2023-06-10T08:52:36;12.17;;;6.90;;
4051;SDS011;2040;50.924;11.604;2023-06-10T08:55:03;13.23;;;6.70;;
4051;SDS011;2040;50.924;11.604;2023-06-10T08:57:35;10.50;;;5.90;;
4051;SDS011;2040;50.924;11.604;2023-06-10T09:00:02;12.30;;;6.70;;
4051;SDS011;2040;50.924;11.604;2023-06-10T09:02:29;16.53;;;6.93;;
4051;SDS011;2040;50.924;11.604;2023-06-10T09:04:56;13.60;;;6.47;;
4051;SDS011;2040;50.924;11.604;2023-06-10T09:07:22;12.40;;;6.67;;
4051;SDS011;2040;50.924;11.604;2023-06-10T09:09:48;14.83;;;5.87;;
4051;SDS011;2040;50.924;11.604;2023-06-10T09:12:14;8.50;;;6.10;;
4051;SDS011;2040;50.924;11.604;2023-06-10T09:14:41;11.00;;;6.00;;
4051;SDS011;2040;50.924;11.604;2023-06-10T09:17:07;9.37;;;5.90;;
4051;SDS011;2040;50.924;11.604;2023-06-10T09:19:33;17.07;;;6.13;;
4051;SDS011;2040;50.924;11.604;2023-06-10T09:22:00;13.60;;;7.13;;
4051;SDS011;2040;50.924;11.604;2023-06-10T09:24:26;9.73;;;6.60;;
4051;SDS011;2040;50.924;11.604;2023-06-10T09:27:04;10.80;;;6.47;;
4051;SDS011;2040;50.924;11.604;2023-06-10T09:29:32;10.20;;;6.80;;
4051;SDS011;2040;50.924;11.604;2023-06-10T09:32:17;9.97;;;6.00;;
4051;SDS011;2040;50.924;11.604;2023-06-10T09:34:43;10.93;;;5.83;;
4051;SDS011;2040;50.924;11.604;2023-06-10T09:37:09;8.70;;;5.30;;
4051;SDS011;2040;50.924;11.604;2023-06-10T09:39:37;13.10;;;5.63;;
4051;SDS011;2040;50.924;11.604;2023-06-10T09:42:15;10.00;;;5.57;;
4051;SDS011;2040;50.924;11.604;2023-06-10T09:44:42;9.27;;;5.53;;
4051;SDS011;2040;50.924;11.604;2023-06-10T09:47:19;7.03;;;5.53;;
4051;SDS011;2040;50.924;11.604;2023-06-10T09:49:48;9.93;;;6.40;;
4051;SDS011;2040;50.924;11.604;2023-06-10T09:52:21;13.83;;;6.20;;
4051;SDS011;2040;50.924;11.604;2023-06-10T09:54:53;13.07;;;6.53;;
4051;SDS011;2040;50.924;11.604;2023-06-10T09:57:24;10.17;;;5.70;;
4051;SDS011;2040;50.924;11.604;2023-06-10T09:59:53;11.50;;;5.10;;
4051;SDS011;2040;50.924;11.604;2023-06-10T10:02:19;10.00;;;5.83;;
4051;SDS011;2040;50.924;11.604;2023-06-10T10:04:45;9.07;;;5.90;;
4051;SDS011;2040;50.924;11.604;2023-06-10T10:07:11;9.10;;;5.27;;
4051;SDS011;2040;50.924;11.604;2023-06-10T10:09:37;10.50;;;6.30;;
4051;SDS011;2040;50.924;11.604;2023-06-10T10:12:13;10.00;;;5.27;;
4051;SDS011;2040;50.924;11.604;2023-06-10T10:14:43;9.33;;;5.93;;
4051;SDS011;2040;50.924;11.604;2023-06-10T10:17:15;10.50;;;5.53;;
4051;SDS011;2040;50.924;11.604;2023-06-10T10:19:50;11.17;;;6.27;;
4051;SDS011;2040;50.924;11.604;2023-06-10T10:22:25;6.40;;;5.27;;
4051;SDS011;2040;50.924;11.604;2023-06-10T10:25:21;11.93;;;6.27;;
4051;SDS011;2040;50.924;11.604;2023-06-10T10:31:15;7.67;;;5.70;;
4051;SDS011;2040;50.924;11.604;2023-06-10T10:36:46;15.77;;;6.50;;
4051;SDS011;2040;50.924;11.604;2023-06-10T10:39:13;8.07;;;5.33;;
4051;SDS011;2040;50.924;11.604;2023-06-10T10:41:56;15.50;;;6.53;;
4051;SDS011;2040;50.924;11.604;2023-06-10T10:44:36;8.30;;;6.10;;
4051;SDS011;2040;50.924;11.604;2023-06-10T10:47:15;9.20;;;5.63;;
4051;SDS011;2040;50.924;11.604;2023-06-10T10:50:16;13.53;;;7.33;;
4051;SDS011;2040;50.924;11.604;2023-06-10T10:55:19;9.63;;;5.80;;
4051;SDS011;2040;50.924;11.604;2023-06-10T10:57:53;10.00;;;6.60;;
4051;SDS011;2040;50.924;11.604;2023-06-10T11:00:33;12.10;;;6.33;;
4051;SDS011;2040;50.924;11.604;2023-06-10T11:08:04;11.43;;;6.67;;
4051;SDS011;2040;50.924;11.604;2023-06-10T11:10:35;14.30;;;7.00;;
4051;SDS011;2040;50.924;11.604;2023-06-10T11:13:06;7.80;;;6.30;;
4051;SDS011;2040;50.924;11.604;2023-06-10T11:15:39;10.60;;;6.67;;
4051;SDS011;2040;50.924;11.604;2023-06-10T11:31:24;11.27;;;6.97;;
4051;SDS011;2040;50.924;11.604;2023-06-10T11:33:52;11.90;;;6.43;;
4051;SDS011;2040;50.924;11.604;2023-06-10T11:36:23;10.33;;;6.80;;
4051;SDS011;2040;50.924;11.604;2023-06-10T11:38:56;12.70;;;6.60;;
4051;SDS011;2040;50.924;11.604;2023-06-10T11:41:26;13.87;;;7.13;;
4051;SDS011;2040;50.924;11.604;2023-06-10T11:43:56;8.53;;;6.20;;
4051;SDS011;2040;50.924;11.604;2023-06-10T11:46:26;11.50;;;6.40;;
4051;SDS011;2040;50.924;11.604;2023-06-10T11:48:54;14.80;;;6.60;;
4051;SDS011;2040;50.924;11.604;2023-06-10T11:51:21;24.27;;;6.80;;
4051;SDS011;2040;50.924;11.604;2023-06-10T11:53:50;14.47;;;7.40;;
4051;SDS011;2040;50.924;11.604;2023-06-10T11:56:19;11.03;;;7.33;;
4051;SDS011;2040;50.924;11.604;2023-06-10T11:58:52;13.53;;;7.10;;
4051;SDS011;2040;50.924;11.604;2023-06-10T12:01:20;10.03;;;7.00;;
4051;SDS011;2040;50.924;11.604;2023-06-10T12:03:47;13.90;;;7.43;;
4051;SDS011;2040;50.924;11.604;2023-06-10T12:06:13;7.70;;;6.30;;
4051;SDS011;2040;50.924;11.604;2023-06-10T12:08:42;11.93;;;6.50;;
4051;SDS011;2040;50.924;11.604;2023-06-10T12:11:08;12.33;;;7.00;;
4051;SDS011;2040;50.924;11.604;2023-06-10T12:13:34;12.80;;;6.90;;
4051;SDS011;2040;50.924;11.604;2023-06-10T12:16:07;11.67;;;7.10;;
4051;SDS011;2040;50.924;11.604;2023-06-10T12:18:33;7.87;;;6.77;;
4051;SDS011;2040;50.924;11.604;2023-06-10T12:20:59;7.00;;;5.63;;
4051;SDS011;2040;50.924;11.604;2023-06-10T12:23:25;7.17;;;5.60;;
4051;SDS011;2040;50.924;11.604;2023-06-10T12:25:51;16.03;;;5.97;;
4051;SDS011;2040;50.924;11.604;2023-06-10T12:28:21;12.10;;;6.07;;
4051;SDS011;2040;50.924;11.604;2023-06-10T12:30:48;7.60;;;5.10;;
4051;SDS011;2040;50.924;11.604;2023-06-10T12:33:20;9.73;;;6.40;;
4051;SDS011;2040;50.924;11.604;2023-06-10T12:35:49;9.50;;;5.43;;
4051;SDS011;2040;50.924;11.604;2023-06-10T12:38:22;7.43;;;5.30;;
4051;SDS011;2040;50.924;11.604;2023-06-10T12:41:01;6.37;;;4.50;;
4051;SDS011;2040;50.924;11.604;2023-06-10T12:43:30;6.10;;;4.20;;
4051;SDS011;2040;50.924;11.604;2023-06-10T12:45:56;8.77;;;4.50;;
4051;SDS011;2040;50.924;11.604;2023-06-10T12:48:34;6.23;;;4.20;;
4051;SDS011;2040;50.924;11.604;2023-06-10T12:51:00;6.50;;;4.33;;
4051;SDS011;2040;50.924;11.604;2023-06-10T12:53:26;6.70;;;4.80;;
4051;SDS011;2040;50.924;11.604;2023-06-10T12:55:55;5.23;;;3.87;;
4051;SDS011;2040;50.924;11.604;2023-06-10T12:58:20;5.90;;;3.70;;
4051;SDS011;2040;50.924;11.604;2023-06-10T13:00:47;6.50;;;4.13;;
4051;SDS011;2040;50.924;11.604;2023-06-10T13:03:13;8.83;;;4.53;;
4051;SDS011;2040;50.924;11.604;2023-06-10T13:05:41;9.07;;;4.03;;
4051;SDS011;2040;50.924;11.604;2023-06-10T13:08:09;13.23;;;3.80;;
4051;SDS011;2040;50.924;11.604;2023-06-10T13:10:35;5.13;;;3.97;;
4051;SDS011;2040;50.924;11.604;2023-06-10T13:13:01;5.83;;;4.07;;
4051;SDS011;2040;50.924;11.604;2023-06-10T13:15:30;4.60;;;4.00;;
4051;SDS011;2040;50.924;11.604;2023-06-10T13:17:56;7.63;;;3.43;;
4051;SDS011;2040;50.924;11.604;2023-06-10T13:20:22;4.80;;;2.83;;
4051;SDS011;2040;50.924;11.604;2023-06-10T13:22:47;4.20;;;3.40;;
4051;SDS011;2040;50.924;11.604;2023-06-10T13:25:14;4.60;;;3.20;;
4051;SDS011;2040;50.924;11.604;2023-06-10T13:27:39;4.83;;;3.50;;
4051;SDS011;2040;50.924;11.604;2023-06-10T13:30:07;9.93;;;3.63;;
4051;SDS011;2040;50.924;11.604;2023-06-10T13:32:34;6.77;;;4.13;;
4051;SDS011;2040;50.924;11.604;2023-06-10T13:35:00;5.63;;;3.23;;
4051;SDS011;2040;50.924;11.604;2023-06-10T13:37:26;6.43;;;3.70;;
4051;SDS011;2040;50.924;11.604;2023-06-10T13:39:52;6.57;;;3.63;;
4051;SDS011;2040;50.924;11.604;2023-06-10T13:42:24;4.07;;;3.43;;
4051;SDS011;2040;50.924;11.604;2023-06-10T13:44:51;3.13;;;2.83;;
4051;SDS011;2040;50.924;11.604;2023-06-10T13:47:17;4.87;;;3.70;;
4051;SDS011;2040;50.924;11.604;2023-06-10T13:49:42;5.20;;;3.47;;
4051;SDS011;2040;50.924;11.604;2023-06-10T13:52:08;3.20;;;2.90;;
4051;SDS011;2040;50.924;11.604;2023-06-10T13:54:34;8.03;;;3.83;;
4051;SDS011;2040;50.924;11.604;2023-06-10T13:57:02;4.30;;;3.60;;
4051;SDS011;2040;50.924;11.604;2023-06-10T13:59:28;7.50;;;3.90;;
4051;SDS011;2040;50.924;11.604;2023-06-10T14:01:54;5.53;;;3.03;;
4051;SDS011;2040;50.924;11.604;2023-06-10T14:04:19;7.00;;;3.53;;
4051;SDS011;2040;50.924;11.604;2023-06-10T14:06:45;4.40;;;3.50;;
4051;SDS011;2040;50.924;11.604;2023-06-10T14:09:12;4.77;;;3.60;;
4051;SDS011;2040;50.924;11.604;2023-06-10T14:11:38;3.90;;;3.47;;
4051;SDS011;2040;50.924;11.604;2023-06-10T14:14:03;8.37;;;3.47;;
4051;SDS011;2040;50.924;11.604;2023-06-10T14:16:29;4.03;;;3.00;;
4051;SDS011;2040;50.924;11.604;2023-06-10T14:18:55;8.60;;;3.30;;
4051;SDS011;2040;50.924;11.604;2023-06-10T14:21:20;3.97;;;3.20;;
4051;SDS011;2040;50.924;11.604;2023-06-10T14:23:46;4.47;;;3.13;;
4051;SDS011;2040;50.924;11.604;2023-06-10T14:26:14;8.60;;;3.80;;
4051;SDS011;2040;50.924;11.604;2023-06-10T14:28:39;4.60;;;3.63;;
4051;SDS011;2040;50.924;11.604;2023-06-10T14:31:05;7.90;;;3.70;;
4051;SDS011;2040;50.924;11.604;2023-06-10T14:33:32;5.67;;;3.70;;
4051;SDS011;2040;50.924;11.604;2023-06-10T14:35:58;6.50;;;3.40;;
4051;SDS011;2040;50.924;11.604;2023-06-10T14:38:23;6.80;;;3.70;;
4051;SDS011;2040;50.924;11.604;2023-06-10T14:40:49;8.50;;;3.60;;
4051;SDS011;2040;50.924;11.604;2023-06-10T14:43:15;11.20;;;4.20;;
4051;SDS011;2040;50.924;11.604;2023-06-10T14:45:40;9.00;;;4.07;;
4051;SDS011;2040;50.924;11.604;2023-06-10T14:48:06;7.53;;;3.63;;
4051;SDS011;2040;50.924;11.604;2023-06-10T14:50:34;6.93;;;3.77;;
4051;SDS011;2040;50.924;11.604;2023-06-10T14:53:00;6.50;;;4.20;;
4051;SDS011;2040;50.924;11.604;2023-06-10T14:55:26;3.63;;;3.27;;
4051;SDS011;2040;50.924;11.604;2023-06-10T14:57:51;6.50;;;4.00;;
4051;SDS011;2040;50.924;11.604;2023-06-10T15:00:17;6.57;;;4.00;;
4051;SDS011;2040;50.924;11.604;2023-06-10T15:02:47;6.53;;;3.90;;
4051;SDS011;2040;50.924;11.604;2023-06-10T15:05:13;5.67;;;3.83;;
4051;SDS011;2040;50.924;11.604;2023-06-10T15:07:40;7.30;;;3.70;;
4051;SDS011;2040;50.924;11.604;2023-06-10T15:10:07;10.33;;;4.77;;
4051;SDS011;2040;50.924;11.604;2023-06-10T15:12:33;6.90;;;4.00;;
4051;SDS011;2040;50.924;11.604;2023-06-10T15:14:59;6.90;;;4.03;;
4051;SDS011;2040;50.924;11.604;2023-06-10T15:17:25;6.37;;;4.90;;
4051;SDS011;2040;50.924;11.604;2023-06-10T15:19:51;6.40;;;4.00;;
4051;SDS011;2040;50.924;11.604;2023-06-10T15:22:19;5.60;;;3.80;;
4051;SDS011;2040;50.924;11.604;2023-06-10T15:24:45;16.27;;;7.93;;
4051;SDS011;2040;50.924;11.604;2023-06-10T15:27:11;8.33;;;3.90;;
4051;SDS011;2040;50.924;11.604;2023-06-10T15:29:36;4.90;;;4.10;;
4051;SDS011;2040;50.924;11.604;2023-06-10T15:32:02;6.07;;;3.97;;
4051;SDS011;2040;50.924;11.604;2023-06-10T15:34:28;5.23;;;3.47;;
4051;SDS011;2040;50.924;11.604;2023-06-10T15:36:54;4.27;;;3.77;;
4051;SDS011;2040;50.924;11.604;2023-06-10T15:39:19;8.90;;;4.03;;